Time;durP1;ratioP1;P1;durP2;ratioP2;P2;SDS_P1;SDS_P2;PMS_P1;PMS_P2;Temp;Humidity;BMP_temperature;BMP_pressure;BME280_temperature;BME280_humidity;BME280_pressure;Samples;Min_cycle;Max_cycle;Signal;HPM_P1;HPM_P2
2024/01/12 00:01:59;;;;;;;13.13;6.55;;;;;;;;;;4981566;28;21093;-67
2024/01/12 00:04:25;;;;;;;12.63;7.80;;;;;;;;;;4982199;28;20054;-67
2024/01/12 00:06:50;;;;;;;15.10;7.45;;;;;;;;;;4963885;28;20096;-67
2024/01/12 00:09:15;;;;;;;10.63;6.72;;;;;;;;;;4982845;28;20049;-68
2024/01/12 00:11:41;;;;;;;16.95;7.88;;;;;;;;;;4983013;28;20096;-67
2024/01/12 00:14:06;;;;;;;10.65;6.82;;;;;;;;;;4981892;28;20057;-67
2024/01/12 00:16:32;;;;;;;9.75;5.25;;;;;;;;;;4982949;28;20042;-67
2024/01/12 00:18:57;;;;;;;13.15;6.47;;;;;;;;;;4981558;28;20442;-67
2024/01/12 00:21:23;;;;;;;14.48;8.23;;;;;;;;;;4982987;28;20468;-67
2024/01/12 00:23:48;;;;;;;10.90;6.28;;;;;;;;;;4982154;28;20050;-67
2024/01/12 00:26:14;;;;;;;11.43;6.38;;;;;;;;;;4982274;28;20054;-67
2024/01/12 00:28:39;;;;;;;9.82;5.78;;;;;;;;;;4980877;28;20042;-66
2024/01/12 00:31:05;;;;;;;8.52;6.45;;;;;;;;;;4981615;28;20046;-66
2024/01/12 00:33:30;;;;;;;15.32;6.00;;;;;;;;;;4983040;28;20533;-66
2024/01/12 00:35:55;;;;;;;11.07;5.43;;;;;;;;;;4981055;28;20457;-66
2024/01/12 00:38:21;;;;;;;18.90;6.30;;;;;;;;;;4982628;28;20046;-66
2024/01/12 00:40:46;;;;;;;6.72;5.07;;;;;;;;;;4982212;28;20788;-71
2024/01/12 00:43:12;;;;;;;9.73;5.85;;;;;;;;;;4979917;28;20042;-67
2024/01/12 00:45:37;;;;;;;7.07;5.43;;;;;;;;;;4979058;28;20112;-67
2024/01/12 00:48:05;;;;;;;10.88;5.20;;;;;;;;;;4978746;28;20052;-67
2024/01/12 00:50:30;;;;;;;12.13;5.97;;;;;;;;;;4977750;28;20050;-67
2024/01/12 00:52:55;;;;;;;14.13;6.28;;;;;;;;;;4978228;28;20085;-67
2024/01/12 00:55:21;;;;;;;10.07;5.43;;;;;;;;;;4979367;28;20039;-66
2024/01/12 00:57:46;;;;;;;13.02;7.50;;;;;;;;;;4977128;28;20065;-66
2024/01/12 01:00:12;;;;;;;11.60;6.68;;;;;;;;;;4978350;28;20554;-66
2024/01/12 01:02:38;;;;;;;16.13;8.05;;;;;;;;;;4979310;28;20046;-68
2024/01/12 01:05:03;;;;;;;11.90;7.22;;;;;;;;;;4977780;28;20345;-66
2024/01/12 01:07:30;;;;;;;16.52;8.10;;;;;;;;;;4978104;28;20050;-66
2024/01/12 01:09:56;;;;;;;17.65;7.50;;;;;;;;;;4976866;28;20062;-67
2024/01/12 01:12:21;;;;;;;17.58;7.63;;;;;;;;;;4978939;28;20157;-66
2024/01/12 01:14:46;;;;;;;11.57;7.28;;;;;;;;;;4979053;28;20961;-65
2024/01/12 01:17:12;;;;;;;16.02;8.50;;;;;;;;;;4981252;28;20664;-65
2024/01/12 01:19:38;;;;;;;9.77;5.18;;;;;;;;;;4979421;28;21408;-65
2024/01/12 01:22:04;;;;;;;13.80;7.72;;;;;;;;;;4977137;28;20052;-64
2024/01/12 01:24:29;;;;;;;15.88;7.93;;;;;;;;;;4976840;28;20057;-64
2024/01/12 01:26:55;;;;;;;12.25;7.05;;;;;;;;;;4977166;28;20061;-65
2024/01/12 01:29:21;;;;;;;18.63;8.73;;;;;;;;;;4976031;28;20066;-64
2024/01/12 01:31:47;;;;;;;14.25;8.07;;;;;;;;;;4977750;28;20096;-64
2024/01/12 01:34:13;;;;;;;13.05;6.53;;;;;;;;;;4976579;28;20070;-65
2024/01/12 01:36:38;;;;;;;18.40;7.28;;;;;;;;;;4978830;28;20092;-65
2024/01/12 01:39:03;;;;;;;21.48;8.52;;;;;;;;;;4977686;28;20547;-64
2024/01/12 01:41:29;;;;;;;15.52;8.40;;;;;;;;;;4978261;28;20046;-65
2024/01/12 01:43:54;;;;;;;12.77;6.80;;;;;;;;;;4961468;28;20129;-64
2024/01/12 01:46:21;;;;;;;16.52;6.63;;;;;;;;;;4976705;28;20519;-65
2024/01/12 01:48:46;;;;;;;18.35;8.23;;;;;;;;;;4977825;28;20712;-64
2024/01/12 01:51:12;;;;;;;14.27;7.20;;;;;;;;;;4976976;28;20050;-66
2024/01/12 01:53:38;;;;;;;18.40;7.60;;;;;;;;;;4979269;28;20042;-65
2024/01/12 01:56:04;;;;;;;16.05;7.53;;;;;;;;;;4975578;28;20470;-65
2024/01/12 01:58:29;;;;;;;17.85;8.35;;;;;;;;;;4978170;28;20050;-65
2024/01/12 02:00:55;;;;;;;16.40;8.80;;;;;;;;;;4976689;28;20054;-64
2024/01/12 02:03:21;;;;;;;14.40;6.90;;;;;;;;;;4977416;28;20057;-65
2024/01/12 02:05:49;;;;;;;16.98;8.30;;;;;;;;;;4978251;28;20045;-65
2024/01/12 02:08:15;;;;;;;16.23;8.55;;;;;;;;;;4976799;28;20050;-65
2024/01/12 02:10:41;;;;;;;22.65;8.43;;;;;;;;;;4977997;28;20415;-66
2024/01/12 02:13:06;;;;;;;18.73;7.65;;;;;;;;;;4977521;28;20054;-65
2024/01/12 02:15:32;;;;;;;14.18;8.02;;;;;;;;;;4978038;28;20076;-65
2024/01/12 02:17:57;;;;;;;15.02;6.97;;;;;;;;;;4977227;28;20050;-64
2024/01/12 02:20:23;;;;;;;16.52;7.43;;;;;;;;;;4977724;28;20046;-64
2024/01/12 02:22:48;;;;;;;18.38;7.10;;;;;;;;;;4977719;28;20122;-65
2024/01/12 02:25:15;;;;;;;14.85;7.30;;;;;;;;;;4977272;28;20042;-65
2024/01/12 02:27:41;;;;;;;13.45;7.57;;;;;;;;;;4977811;28;20046;-65
2024/01/12 02:30:07;;;;;;;9.57;6.63;;;;;;;;;;4976584;28;20081;-65
2024/01/12 02:32:32;;;;;;;14.27;7.60;;;;;;;;;;4977588;28;20053;-65
2024/01/12 02:34:58;;;;;;;15.05;8.38;;;;;;;;;;4976986;28;20046;-65
2024/01/12 02:37:23;;;;;;;13.75;6.88;;;;;;;;;;4976553;28;20145;-65
2024/01/12 02:39:48;;;;;;;12.35;8.02;;;;;;;;;;4976788;28;20057;-66
2024/01/12 02:42:14;;;;;;;11.23;6.50;;;;;;;;;;4991341;28;20054;-65
2024/01/12 02:44:39;;;;;;;10.10;6.43;;;;;;;;;;4976180;28;20057;-65
2024/01/12 02:47:06;;;;;;;14.60;6.95;;;;;;;;;;4976385;28;20073;-65
2024/01/12 02:49:32;;;;;;;11.85;6.43;;;;;;;;;;4975978;28;20133;-65
2024/01/12 02:51:57;;;;;;;14.43;7.50;;;;;;;;;;4976515;28;20145;-65
2024/01/12 02:54:23;;;;;;;15.65;6.75;;;;;;;;;;4977208;28;20048;-65
2024/01/12 02:56:48;;;;;;;15.27;7.28;;;;;;;;;;4976667;28;20214;-70
2024/01/12 02:59:13;;;;;;;15.38;6.82;;;;;;;;;;4976393;28;20503;-65
2024/01/12 03:01:39;;;;;;;13.75;6.90;;;;;;;;;;4975509;28;20141;-65
2024/01/12 03:04:04;;;;;;;12.43;7.68;;;;;;;;;;4977446;28;20789;-65
2024/01/12 03:06:30;;;;;;;9.43;4.72;;;;;;;;;;4976324;28;20141;-65
2024/01/12 03:08:55;;;;;;;14.80;6.47;;;;;;;;;;4976564;28;20388;-66
2024/01/12 03:11:20;;;;;;;22.08;7.05;;;;;;;;;;4958747;28;20044;-66
2024/01/12 03:13:46;;;;;;;11.90;6.70;;;;;;;;;;4976769;28;20076;-65
2024/01/12 03:16:19;;;;;;;6.63;5.30;;;;;;;;;;4976757;28;20124;-66
2024/01/12 03:18:45;;;;;;;8.38;5.75;;;;;;;;;;4976876;28;20046;-66
2024/01/12 03:21:10;;;;;;;11.80;6.57;;;;;;;;;;4975748;28;20050;-66
2024/01/12 03:23:35;;;;;;;6.85;5.15;;;;;;;;;;4976533;28;20038;-65
2024/01/12 03:26:01;;;;;;;13.77;7.10;;;;;;;;;;4977395;28;20050;-65
2024/01/12 03:28:26;;;;;;;13.55;6.13;;;;;;;;;;4976350;28;20843;-65
2024/01/12 03:30:52;;;;;;;11.57;6.38;;;;;;;;;;4976450;28;20050;-66
2024/01/12 03:33:17;;;;;;;12.20;5.90;;;;;;;;;;4976677;28;20046;-64
2024/01/12 03:35:42;;;;;;;15.00;6.80;;;;;;;;;;4975975;28;20042;-65
2024/01/12 03:38:11;;;;;;;10.15;5.75;;;;;;;;;;4976432;28;20038;-66
2024/01/12 03:40:37;;;;;;;6.18;4.15;;;;;;;;;;4976770;28;20050;-65
2024/01/12 03:43:03;;;;;;;8.80;5.88;;;;;;;;;;4976500;28;20097;-65
2024/01/12 03:45:28;;;;;;;12.35;6.00;;;;;;;;;;4975872;28;20085;-65
2024/01/12 03:47:54;;;;;;;11.52;5.93;;;;;;;;;;4976868;28;20042;-66
2024/01/12 03:50:20;;;;;;;10.63;6.55;;;;;;;;;;4975028;28;20047;-65
2024/01/12 03:52:45;;;;;;;12.27;6.68;;;;;;;;;;4976585;28;20042;-65
2024/01/12 03:55:11;;;;;;;14.95;6.68;;;;;;;;;;4976095;28;20633;-66
2024/01/12 03:57:36;;;;;;;8.52;6.35;;;;;;;;;;4977752;28;20124;-65
2024/01/12 04:00:02;;;;;;;9.57;5.63;;;;;;;;;;4977000;28;20166;-65
2024/01/12 04:02:30;;;;;;;9.38;5.30;;;;;;;;;;4976778;28;20632;-66
2024/01/12 04:04:56;;;;;;;13.02;6.80;;;;;;;;;;4976119;28;20042;-65
2024/01/12 04:07:21;;;;;;;14.80;7.05;;;;;;;;;;4989852;28;20081;-65
2024/01/12 04:09:47;;;;;;;8.93;6.43;;;;;;;;;;4976280;28;20046;-66
2024/01/12 04:12:13;;;;;;;12.57;6.25;;;;;;;;;;4975165;28;20046;-65
2024/01/12 04:14:42;;;;;;;19.95;6.75;;;;;;;;;;4976480;28;20042;-65
2024/01/12 04:17:08;;;;;;;11.63;6.25;;;;;;;;;;4975219;28;20714;-66
2024/01/12 04:19:33;;;;;;;10.88;6.95;;;;;;;;;;4976777;28;20157;-65
2024/01/12 04:22:00;;;;;;;11.18;6.65;;;;;;;;;;4980239;28;20134;-65
2024/01/12 04:24:25;;;;;;;14.13;8.90;;;;;;;;;;4980095;28;20169;-66
2024/01/12 04:26:50;;;;;;;8.93;5.28;;;;;;;;;;4980288;28;20043;-66
2024/01/12 04:29:16;;;;;;;9.07;5.88;;;;;;;;;;4978802;28;20056;-65
2024/01/12 04:31:41;;;;;;;7.57;5.07;;;;;;;;;;4979416;28;20832;-65
2024/01/12 04:34:07;;;;;;;11.57;6.38;;;;;;;;;;4978345;28;20124;-66
2024/01/12 04:36:32;;;;;;;14.15;7.57;;;;;;;;;;4979572;28;20050;-67
2024/01/12 04:38:58;;;;;;;8.82;5.95;;;;;;;;;;4979231;28;20494;-67
2024/01/12 04:41:23;;;;;;;19.23;6.80;;;;;;;;;;4978968;28;20053;-67
2024/01/12 04:43:49;;;;;;;10.50;6.28;;;;;;;;;;4994023;28;20439;-68
2024/01/12 04:46:14;;;;;;;16.65;7.20;;;;;;;;;;4979546;28;20046;-67
2024/01/12 04:48:40;;;;;;;15.18;7.30;;;;;;;;;;4979320;28;20999;-67
2024/01/12 04:51:05;;;;;;;13.50;7.53;;;;;;;;;;4974288;28;20527;-67
2024/01/12 04:53:30;;;;;;;13.55;7.90;;;;;;;;;;4978605;28;20569;-67
2024/01/12 04:55:56;;;;;;;9.95;6.78;;;;;;;;;;4980451;28;20051;-67
2024/01/12 04:58:21;;;;;;;13.20;7.30;;;;;;;;;;4977729;28;20679;-67
2024/01/12 05:00:47;;;;;;;13.40;6.88;;;;;;;;;;4979182;28;20581;-67
2024/01/12 05:03:12;;;;;;;13.70;7.35;;;;;;;;;;4978109;28;20058;-68
2024/01/12 05:05:37;;;;;;;15.75;8.18;;;;;;;;;;4978561;28;20049;-69
2024/01/12 05:08:03;;;;;;;18.80;8.63;;;;;;;;;;4978646;28;21191;-69
2024/01/12 05:10:29;;;;;;;13.52;7.07;;;;;;;;;;4978695;28;20050;-69
2024/01/12 05:12:54;;;;;;;17.80;8.63;;;;;;;;;;4977976;28;20344;-69
2024/01/12 05:15:19;;;;;;;21.00;9.50;;;;;;;;;;4975371;28;20569;-69
2024/01/12 05:17:45;;;;;;;18.73;7.72;;;;;;;;;;4976922;28;20042;-69
2024/01/12 05:20:10;;;;;;;12.90;8.48;;;;;;;;;;4975707;28;20073;-68
2024/01/12 05:22:36;;;;;;;13.60;6.32;;;;;;;;;;4977616;28;20046;-68
2024/01/12 05:25:03;;;;;;;15.32;7.55;;;;;;;;;;4977132;28;20809;-67
2024/01/12 05:27:29;;;;;;;16.05;8.90;;;;;;;;;;4976902;28;20606;-68
2024/01/12 05:29:54;;;;;;;19.30;9.57;;;;;;;;;;4977066;28;20104;-68
2024/01/12 05:32:20;;;;;;;17.85;7.80;;;;;;;;;;4977071;28;20039;-68
2024/01/12 05:34:45;;;;;;;16.55;8.02;;;;;;;;;;4977787;28;20813;-68
2024/01/12 05:37:10;;;;;;;15.35;9.18;;;;;;;;;;4975290;28;20058;-68
2024/01/12 05:39:36;;;;;;;17.50;8.68;;;;;;;;;;4990808;28;20695;-67
2024/01/12 05:42:01;;;;;;;18.15;8.32;;;;;;;;;;4942988;28;20049;-68
2024/01/12 05:44:27;;;;;;;24.77;9.23;;;;;;;;;;4939788;28;20162;-68
2024/01/12 05:46:52;;;;;;;15.75;8.02;;;;;;;;;;4938097;28;20036;-68
2024/01/12 05:49:17;;;;;;;17.23;8.85;;;;;;;;;;4939288;28;20077;-68
2024/01/12 05:51:43;;;;;;;15.70;8.10;;;;;;;;;;4937528;28;20043;-67
2024/01/12 05:54:08;;;;;;;19.90;8.80;;;;;;;;;;4939214;28;20046;-68
2024/01/12 05:56:34;;;;;;;23.63;9.38;;;;;;;;;;4936035;28;20502;-68
2024/01/12 05:58:59;;;;;;;25.45;10.77;;;;;;;;;;4937169;28;20496;-67
2024/01/12 06:01:24;;;;;;;20.98;9.85;;;;;;;;;;4926736;28;20145;-68
2024/01/12 06:03:50;;;;;;;18.35;9.07;;;;;;;;;;4937942;28;20390;-68
2024/01/12 06:06:15;;;;;;;20.85;9.77;;;;;;;;;;4938717;28;20054;-69
2024/01/12 06:08:41;;;;;;;18.45;8.38;;;;;;;;;;4935940;28;20054;-69
2024/01/12 06:11:06;;;;;;;13.35;7.18;;;;;;;;;;4938027;28;20047;-69
2024/01/12 06:13:32;;;;;;;17.90;8.40;;;;;;;;;;4935889;28;20051;-68
2024/01/12 06:15:57;;;;;;;17.83;7.55;;;;;;;;;;4939321;28;20042;-68
2024/01/12 06:18:22;;;;;;;18.58;7.85;;;;;;;;;;4937393;28;20050;-68
2024/01/12 06:20:48;;;;;;;20.13;8.15;;;;;;;;;;4938152;28;20047;-68
2024/01/12 06:23:14;;;;;;;16.95;7.38;;;;;;;;;;4938017;28;20051;-68
2024/01/12 06:25:39;;;;;;;19.23;8.80;;;;;;;;;;4936843;28;20047;-68
2024/01/12 06:28:05;;;;;;;14.25;7.88;;;;;;;;;;4938481;28;20043;-68
2024/01/12 06:30:31;;;;;;;16.73;7.55;;;;;;;;;;4936704;28;20047;-68
2024/01/12 06:32:58;;;;;;;11.27;7.10;;;;;;;;;;4936649;28;20978;-68
2024/01/12 06:35:23;;;;;;;14.52;7.72;;;;;;;;;;4937666;28;20420;-68
2024/01/12 06:37:49;;;;;;;15.43;7.38;;;;;;;;;;4938049;28;20057;-68
2024/01/12 06:40:14;;;;;;;18.38;8.13;;;;;;;;;;4937284;28;20046;-68
2024/01/12 06:42:41;;;;;;;20.80;7.65;;;;;;;;;;4936829;28;20420;-68
2024/01/12 06:45:08;;;;;;;16.80;9.25;;;;;;;;;;4938260;28;20055;-68
2024/01/12 06:47:34;;;;;;;18.00;8.55;;;;;;;;;;4938502;28;20054;-68
2024/01/12 06:50:00;;;;;;;20.08;8.65;;;;;;;;;;4937168;28;20043;-68
2024/01/12 06:52:26;;;;;;;17.85;8.98;;;;;;;;;;4935165;28;20055;-68
2024/01/12 06:54:51;;;;;;;19.13;8.13;;;;;;;;;;4938764;28;20058;-70
2024/01/12 06:57:17;;;;;;;23.08;8.55;;;;;;;;;;4938452;28;20058;-68
2024/01/12 06:59:42;;;;;;;15.32;7.72;;;;;;;;;;4935593;28;20082;-69
2024/01/12 07:02:09;;;;;;;14.10;7.38;;;;;;;;;;4938506;28;20039;-69
2024/01/12 07:04:35;;;;;;;17.60;7.57;;;;;;;;;;4936868;28;20047;-69
2024/01/12 07:07:01;;;;;;;15.07;7.40;;;;;;;;;;4937178;28;20158;-69
2024/01/12 07:09:27;;;;;;;19.60;10.55;;;;;;;;;;4935724;28;20051;-69
2024/01/12 07:11:53;;;;;;;16.67;9.32;;;;;;;;;;4938211;28;20057;-69
2024/01/12 07:14:19;;;;;;;16.65;7.95;;;;;;;;;;4938110;28;20074;-69
2024/01/12 07:16:44;;;;;;;18.35;8.35;;;;;;;;;;4938486;28;20142;-69
2024/01/12 07:19:10;;;;;;;20.27;8.30;;;;;;;;;;4937787;28;20059;-69
2024/01/12 07:21:35;;;;;;;20.65;8.60;;;;;;;;;;4938175;28;20157;-69
2024/01/12 07:24:02;;;;;;;20.05;8.77;;;;;;;;;;4938298;28;20047;-69
2024/01/12 07:26:27;;;;;;;18.90;8.63;;;;;;;;;;4937590;28;20055;-69
2024/01/12 07:28:53;;;;;;;13.57;8.30;;;;;;;;;;4937411;28;20046;-69
2024/01/12 07:31:19;;;;;;;18.42;8.32;;;;;;;;;;4938411;28;20051;-69
2024/01/12 07:33:44;;;;;;;13.25;7.07;;;;;;;;;;4937684;28;20129;-69
2024/01/12 07:36:10;;;;;;;14.48;7.43;;;;;;;;;;4938915;28;20408;-69
2024/01/12 07:38:35;;;;;;;12.15;7.22;;;;;;;;;;4937782;28;20825;-69
2024/01/12 07:41:01;;;;;;;11.82;7.60;;;;;;;;;;4938747;28;20134;-69
2024/01/12 07:43:32;;;;;;;18.85;8.30;;;;;;;;;;4939140;28;20121;-69
2024/01/12 07:45:59;;;;;;;21.33;7.95;;;;;;;;;;4938627;28;20074;-69
2024/01/12 07:48:24;;;;;;;24.92;8.07;;;;;;;;;;4936927;28;20447;-69
2024/01/12 07:50:50;;;;;;;17.38;8.73;;;;;;;;;;4936608;28;20039;-68
2024/01/12 07:53:15;;;;;;;16.05;8.20;;;;;;;;;;4938809;28;20048;-68
2024/01/12 07:55:41;;;;;;;14.73;7.20;;;;;;;;;;4941110;28;20575;-68
2024/01/12 07:58:06;;;;;;;20.50;9.50;;;;;;;;;;4941866;28;20063;-68
2024/01/12 08:00:32;;;;;;;18.70;8.93;;;;;;;;;;4940780;28;20528;-68
2024/01/12 08:02:57;;;;;;;15.55;8.18;;;;;;;;;;4941109;28;20461;-68
2024/01/12 08:05:23;;;;;;;22.23;10.05;;;;;;;;;;4941776;28;20047;-69
2024/01/12 08:07:49;;;;;;;19.02;8.15;;;;;;;;;;4941395;28;20047;-69
2024/01/12 08:10:18;;;;;;;25.58;10.43;;;;;;;;;;4941237;28;20055;-69
2024/01/12 08:12:44;;;;;;;18.90;9.75;;;;;;;;;;4940082;28;20154;-67
2024/01/12 08:15:09;;;;;;;28.67;11.15;;;;;;;;;;4941108;28;20478;-67
2024/01/12 08:17:37;;;;;;;23.95;10.88;;;;;;;;;;4941276;28;20051;-69
2024/01/12 08:20:03;;;;;;;20.08;8.93;;;;;;;;;;4940826;28;20075;-69
2024/01/12 08:22:29;;;;;;;33.92;11.95;;;;;;;;;;4941278;28;20067;-69
2024/01/12 08:24:54;;;;;;;22.75;10.80;;;;;;;;;;4940595;28;20404;-69
2024/01/12 08:27:19;;;;;;;18.63;9.57;;;;;;;;;;4941830;28;20058;-69
2024/01/12 08:29:45;;;;;;;20.35;10.18;;;;;;;;;;4940865;28;20130;-69
2024/01/12 08:32:11;;;;;;;20.38;11.18;;;;;;;;;;4940866;28;20117;-69
2024/01/12 08:34:37;;;;;;;27.15;9.73;;;;;;;;;;4941011;28;20145;-67
2024/01/12 08:37:03;;;;;;;26.48;10.88;;;;;;;;;;4939381;28;20567;-67
2024/01/12 08:39:29;;;;;;;26.70;10.45;;;;;;;;;;4941285;28;20047;-69
2024/01/12 08:41:55;;;;;;;20.73;10.52;;;;;;;;;;4940905;28;20043;-70
2024/01/12 08:44:20;;;;;;;25.83;12.45;;;;;;;;;;4940284;28;20070;-69
2024/01/12 08:46:45;;;;;;;29.27;12.70;;;;;;;;;;4940808;28;20105;-69
2024/01/12 08:49:11;;;;;;;30.13;12.55;;;;;;;;;;4940570;28;20508;-68
2024/01/12 08:51:36;;;;;;;28.05;12.70;;;;;;;;;;4940576;28;20101;-67
2024/01/12 08:54:02;;;;;;;28.90;12.05;;;;;;;;;;4939750;28;20046;-67
2024/01/12 08:56:27;;;;;;;33.42;12.07;;;;;;;;;;4939981;28;20079;-68
2024/01/12 08:58:52;;;;;;;26.10;12.40;;;;;;;;;;4938204;28;20552;-69
2024/01/12 09:01:18;;;;;;;18.95;9.98;;;;;;;;;;4940712;28;20051;-67
2024/01/12 09:03:43;;;;;;;28.80;12.93;;;;;;;;;;4939808;28;20509;-67
2024/01/12 09:06:10;;;;;;;30.48;12.63;;;;;;;;;;4939767;28;20677;-68
2024/01/12 09:08:35;;;;;;;27.30;11.73;;;;;;;;;;4939896;28;20449;-68
2024/01/12 09:11:01;;;;;;;24.60;11.35;;;;;;;;;;4940484;28;20568;-67
2024/01/12 09:13:26;;;;;;;28.70;12.07;;;;;;;;;;4940807;28;20182;-68
2024/01/12 09:15:52;;;;;;;29.83;12.63;;;;;;;;;;4938088;28;20051;-68
2024/01/12 09:18:17;;;;;;;31.30;13.02;;;;;;;;;;4940551;28;20500;-68
2024/01/12 09:20:43;;;;;;;29.35;12.25;;;;;;;;;;4939645;28;20062;-68
2024/01/12 09:23:08;;;;;;;23.65;11.90;;;;;;;;;;4939960;28;20058;-68
2024/01/12 09:25:33;;;;;;;27.23;13.85;;;;;;;;;;4940956;28;20051;-68
2024/01/12 09:27:59;;;;;;;29.75;11.82;;;;;;;;;;4938171;28;20047;-69
2024/01/12 09:30:24;;;;;;;21.67;11.63;;;;;;;;;;4940048;28;20412;-68
2024/01/12 09:32:50;;;;;;;32.90;12.95;;;;;;;;;;4940065;28;20058;-69
2024/01/12 09:35:15;;;;;;;30.33;12.30;;;;;;;;;;4939057;28;20133;-68
2024/01/12 09:37:41;;;;;;;30.40;12.50;;;;;;;;;;4936131;28;20039;-69
2024/01/12 09:40:07;;;;;;;28.95;12.05;;;;;;;;;;4938354;28;21017;-70
2024/01/12 09:42:32;;;;;;;27.45;11.90;;;;;;;;;;4939049;28;20055;-69
2024/01/12 09:45:00;;;;;;;27.88;12.57;;;;;;;;;;4938377;28;20568;-68
2024/01/12 09:47:26;;;;;;;26.95;12.20;;;;;;;;;;4939688;28;20051;-67
2024/01/12 09:49:52;;;;;;;31.58;13.20;;;;;;;;;;4938664;28;20059;-68
2024/01/12 09:52:18;;;;;;;34.33;13.40;;;;;;;;;;4939474;28;20058;-68
2024/01/12 09:54:44;;;;;;;30.20;13.18;;;;;;;;;;4939212;28;20047;-68
2024/01/12 09:57:11;;;;;;;29.58;12.82;;;;;;;;;;4939188;28;20050;-68
2024/01/12 09:59:38;;;;;;;25.50;11.98;;;;;;;;;;4939073;28;20074;-69
2024/01/12 10:02:08;;;;;;;24.67;12.18;;;;;;;;;;4938064;28;20047;-69
2024/01/12 10:04:35;;;;;;;31.08;14.73;;;;;;;;;;4939410;28;20552;-69
2024/01/12 10:07:00;;;;;;;31.90;13.38;;;;;;;;;;4937459;28;20043;-69
2024/01/12 10:09:26;;;;;;;30.88;14.30;;;;;;;;;;4939230;28;20105;-69
2024/01/12 10:11:55;;;;;;;28.60;13.55;;;;;;;;;;4936972;28;20058;-69
2024/01/12 10:14:22;;;;;;;27.30;14.18;;;;;;;;;;4939294;28;20043;-69
2024/01/12 10:16:57;;;;;;;30.50;14.82;;;;;;;;;;4938311;28;20134;-69
2024/01/12 10:19:24;;;;;;;34.10;14.35;;;;;;;;;;4938438;28;20759;-70
2024/01/12 10:21:50;;;;;;;30.38;16.10;;;;;;;;;;4936318;28;20055;-68
2024/01/12 10:24:19;;;;;;;32.65;15.18;;;;;;;;;;4939124;28;20044;-69
2024/01/12 10:26:49;;;;;;;30.48;15.55;;;;;;;;;;4938706;28;20122;-69
2024/01/12 10:29:15;;;;;;;33.17;15.52;;;;;;;;;;4937673;28;20681;-69
2024/01/12 10:31:43;;;;;;;31.10;14.48;;;;;;;;;;4938507;28;20055;-69
2024/01/12 10:34:11;;;;;;;28.67;13.95;;;;;;;;;;4937791;28;20190;-68
2024/01/12 10:36:38;;;;;;;32.13;15.05;;;;;;;;;;4938595;28;20505;-69
2024/01/12 10:39:03;;;;;;;32.00;13.65;;;;;;;;;;4937545;28;20047;-69
2024/01/12 10:41:31;;;;;;;30.20;13.52;;;;;;;;;;4937928;28;20114;-68
2024/01/12 10:44:01;;;;;;;29.63;13.40;;;;;;;;;;4937430;28;20050;-68
2024/01/12 10:46:35;;;;;;;28.27;14.05;;;;;;;;;;4938072;28;20047;-69
2024/01/12 10:49:20;;;;;;;29.80;13.88;;;;;;;;;;4936613;28;20061;-68
2024/01/12 10:52:07;;;;;;;25.83;13.40;;;;;;;;;;4938167;28;20356;-68
2024/01/12 10:54:50;;;;;;;26.73;13.27;;;;;;;;;;4937180;28;20118;-69
2024/01/12 10:57:16;;;;;;;29.38;13.90;;;;;;;;;;4937234;28;20051;-68
2024/01/12 10:59:44;;;;;;;27.40;13.52;;;;;;;;;;4937644;28;20588;-68
2024/01/12 11:02:12;;;;;;;26.45;13.85;;;;;;;;;;4937964;28;20480;-68
2024/01/12 11:04:39;;;;;;;28.27;14.45;;;;;;;;;;4937989;28;20053;-68
2024/01/12 11:07:06;;;;;;;27.00;14.15;;;;;;;;;;4936308;28;20058;-68
2024/01/12 11:09:31;;;;;;;31.90;14.82;;;;;;;;;;4938006;28;20051;-68
2024/01/12 11:12:03;;;;;;;25.75;13.00;;;;;;;;;;4937389;28;20047;-68
2024/01/12 11:14:30;;;;;;;41.03;14.50;;;;;;;;;;4938173;28;20042;-68
2024/01/12 11:16:56;;;;;;;28.33;12.98;;;;;;;;;;4936606;28;20043;-68
2024/01/12 11:19:24;;;;;;;25.60;13.43;;;;;;;;;;4937881;28;20054;-67
2024/01/12 11:22:00;;;;;;;30.10;13.38;;;;;;;;;;4937710;28;20047;-67
2024/01/12 11:24:26;;;;;;;28.48;12.43;;;;;;;;;;4938206;28;20871;-68
2024/01/12 11:26:51;;;;;;;24.92;12.05;;;;;;;;;;4937413;28;20058;-68
2024/01/12 11:29:19;;;;;;;28.42;13.77;;;;;;;;;;4936472;28;20055;-68
2024/01/12 11:31:51;;;;;;;34.63;14.52;;;;;;;;;;4937834;28;20109;-68
2024/01/12 11:34:18;;;;;;;27.40;14.70;;;;;;;;;;4938515;28;20540;-68
2024/01/12 11:36:43;;;;;;;31.00;15.15;;;;;;;;;;4938139;28;20083;-67
2024/01/12 11:39:12;;;;;;;29.50;14.27;;;;;;;;;;4936671;28;20698;-67
2024/01/12 11:41:43;;;;;;;40.45;17.10;;;;;;;;;;4937927;28;20126;-68
2024/01/12 11:44:09;;;;;;;32.85;14.90;;;;;;;;;;4936639;28;20117;-67
2024/01/12 11:46:34;;;;;;;28.35;14.70;;;;;;;;;;4935242;28;20051;-67
2024/01/12 11:49:04;;;;;;;32.53;14.55;;;;;;;;;;4936348;28;20227;-67
2024/01/12 11:51:30;;;;;;;33.70;15.60;;;;;;;;;;4936026;28;20110;-68
2024/01/12 11:53:58;;;;;;;29.80;14.45;;;;;;;;;;4937057;28;20058;-68
2024/01/12 11:56:24;;;;;;;32.38;15.48;;;;;;;;;;4938238;28;20047;-68
2024/01/12 11:58:51;;;;;;;34.42;16.10;;;;;;;;;;4937631;28;20063;-67
2024/01/12 12:01:18;;;;;;;32.80;14.90;;;;;;;;;;4929022;28;20043;-68
2024/01/12 12:03:44;;;;;;;27.48;14.93;;;;;;;;;;4933669;28;20039;-67
2024/01/12 12:06:11;;;;;;;34.65;14.50;;;;;;;;;;4931478;28;20308;-68
2024/01/12 12:08:39;;;;;;;35.03;15.30;;;;;;;;;;4932931;28;20996;-68
2024/01/12 12:11:05;;;;;;;27.38;13.23;;;;;;;;;;4932945;28;20051;-68
2024/01/12 12:13:33;;;;;;;28.23;16.13;;;;;;;;;;4934069;28;20058;-69
2024/01/12 12:15:59;;;;;;;35.50;14.55;;;;;;;;;;4934084;28;20220;-69
2024/01/12 12:18:24;;;;;;;26.63;12.68;;;;;;;;;;4933354;28;20662;-69
2024/01/12 12:20:50;;;;;;;29.55;15.90;;;;;;;;;;4934811;28;20054;-69
2024/01/12 12:23:15;;;;;;;29.42;14.32;;;;;;;;;;4932271;28;20429;-69
2024/01/12 12:25:42;;;;;;;35.05;15.13;;;;;;;;;;4934400;28;20079;-69
2024/01/12 12:28:07;;;;;;;27.92;12.63;;;;;;;;;;4935672;28;20055;-69
2024/01/12 12:30:33;;;;;;;31.80;15.43;;;;;;;;;;4936221;28;20054;-69
2024/01/12 12:32:59;;;;;;;30.92;14.70;;;;;;;;;;4934469;28;20063;-69
2024/01/12 12:35:26;;;;;;;26.05;12.55;;;;;;;;;;4933152;28;20138;-69
2024/01/12 12:37:52;;;;;;;33.40;14.35;;;;;;;;;;4934931;28;20166;-70
2024/01/12 12:40:19;;;;;;;35.40;15.30;;;;;;;;;;4936020;28;20043;-69
2024/01/12 12:42:48;;;;;;;29.83;14.98;;;;;;;;;;4952957;28;21154;-69
2024/01/12 12:45:15;;;;;;;40.08;17.70;;;;;;;;;;4955643;28;21257;-70
2024/01/12 12:47:40;;;;;;;30.15;15.05;;;;;;;;;;4955906;28;20057;-69
2024/01/12 12:50:10;;;;;;;33.05;15.40;;;;;;;;;;4956039;28;20046;-69
2024/01/12 12:52:39;;;;;;;32.65;15.77;;;;;;;;;;4942231;28;20517;-69
2024/01/12 12:55:06;;;;;;;33.78;14.68;;;;;;;;;;4936017;28;20043;-69
2024/01/12 12:57:33;;;;;;;24.73;13.15;;;;;;;;;;4937908;28;20058;-69
2024/01/12 12:59:59;;;;;;;26.52;14.38;;;;;;;;;;4937313;28;20226;-69
2024/01/12 13:02:24;;;;;;;38.42;16.90;;;;;;;;;;4937840;28;20118;-69
2024/01/12 13:04:52;;;;;;;38.97;18.35;;;;;;;;;;4938577;28;20082;-69
2024/01/12 13:07:18;;;;;;;35.20;15.50;;;;;;;;;;4933902;28;20058;-69
2024/01/12 13:09:43;;;;;;;36.53;17.02;;;;;;;;;;4937302;28;20051;-70
2024/01/12 13:12:09;;;;;;;37.80;17.08;;;;;;;;;;4936854;28;20492;-69
2024/01/12 13:14:35;;;;;;;32.05;14.93;;;;;;;;;;4936681;28;20039;-69
2024/01/12 13:17:00;;;;;;;38.28;19.02;;;;;;;;;;4935995;28;20043;-69
2024/01/12 13:19:25;;;;;;;40.55;17.80;;;;;;;;;;4937595;28;20531;-68
2024/01/12 13:21:51;;;;;;;36.30;16.45;;;;;;;;;;4937897;28;20101;-68
2024/01/12 13:24:16;;;;;;;40.65;18.80;;;;;;;;;;4952642;28;20066;-68
2024/01/12 13:26:42;;;;;;;42.85;18.98;;;;;;;;;;4939646;28;20078;-71
2024/01/12 13:29:08;;;;;;;38.65;17.30;;;;;;;;;;4937368;28;20078;-68
2024/01/12 13:31:35;;;;;;;39.53;17.27;;;;;;;;;;4951937;28;20055;-69
2024/01/12 13:34:01;;;;;;;38.17;17.60;;;;;;;;;;4937177;28;20676;-69
2024/01/12 13:36:27;;;;;;;36.33;16.88;;;;;;;;;;4937803;28;20055;-69
2024/01/12 13:38:53;;;;;;;43.45;18.25;;;;;;;;;;4939328;28;20058;-68
2024/01/12 13:41:19;;;;;;;38.50;17.10;;;;;;;;;;4936649;28;20098;-68
2024/01/12 13:43:45;;;;;;;34.15;16.70;;;;;;;;;;4938058;28;20130;-68
2024/01/12 13:46:10;;;;;;;21.67;12.73;;;;;;;;;;4937605;28;20138;-68
2024/01/12 13:48:35;;;;;;;28.17;15.52;;;;;;;;;;4938208;28;20126;-70
2024/01/12 13:51:01;;;;;;;32.00;16.35;;;;;;;;;;4935409;28;20051;-69
2024/01/12 13:53:30;;;;;;;39.40;18.50;;;;;;;;;;4939955;28;20119;-68
2024/01/12 13:55:55;;;;;;;35.47;16.77;;;;;;;;;;4939195;28;20103;-68
2024/01/12 13:58:21;;;;;;;33.72;16.52;;;;;;;;;;4938752;28;20803;-68
2024/01/12 14:00:47;;;;;;;27.75;14.10;;;;;;;;;;4936492;28;20083;-68
2024/01/12 14:03:13;;;;;;;38.67;17.38;;;;;;;;;;4932581;28;20051;-68
2024/01/12 15:41:53;;;;;;;33.47;16.67;;;;;;;;;;4972429;28;20130;-67
2024/01/12 15:44:21;;;;;;;25.55;14.13;;;;;;;;;;4971461;28;21049;-68
2024/01/12 15:46:46;;;;;;;35.90;17.88;;;;;;;;;;4969211;28;20049;-68
2024/01/12 15:49:12;;;;;;;16.85;10.48;;;;;;;;;;4970410;28;20034;-67
2024/01/12 15:51:40;;;;;;;32.67;15.90;;;;;;;;;;4952141;28;20114;-68
2024/01/12 15:54:05;;;;;;;30.35;15.15;;;;;;;;;;4954172;28;20049;-67
2024/01/12 15:56:30;;;;;;;45.10;16.02;;;;;;;;;;4972185;28;20042;-67